createdAt,value
2018-07-21T12:56:47.006Z,23.0
2018-07-21T13:01:46.056Z,23.0
2018-07-21T13:06:45.665Z,23.6
2018-07-21T13:11:45.091Z,24.2
2018-07-21T13:16:45.893Z,24.7
2018-07-21T13:21:45.445Z,25.0
2018-07-21T13:26:46.119Z,24.9
2018-07-21T13:31:45.298Z,24.9
2018-07-21T13:36:44.961Z,24.7
2018-07-21T13:41:46.918Z,24.9
2018-07-21T13:47:28.567Z,25.2
2018-07-21T13:52:28.059Z,25.6
2018-07-21T13:57:28.020Z,25.7
2018-07-21T14:02:27.526Z,25.3
2018-07-21T14:07:28.224Z,25.1
2018-07-21T14:12:27.185Z,24.8
2018-07-21T14:17:28.278Z,24.7
2018-07-21T14:22:29.014Z,24.7
2018-07-21T14:27:28.322Z,24.7
2018-07-21T14:32:28.761Z,24.9
2018-07-21T14:37:27.508Z,25.0
2018-07-21T14:42:28.506Z,24.8
2018-07-21T14:47:28.336Z,24.7
2018-07-21T14:52:27.811Z,24.7
2018-07-21T14:57:27.531Z,24.6
2018-07-21T15:02:28.224Z,24.1
2018-07-21T15:07:28.218Z,24.1
2018-07-21T15:12:28.578Z,23.9
2018-07-21T15:17:27.931Z,24.1
2018-07-21T15:22:27.696Z,24.3
2018-07-21T15:27:28.168Z,24.4
2018-07-21T15:32:28.077Z,24.6
2018-07-21T15:37:27.780Z,24.9
2018-07-21T15:42:27.429Z,24.9
2018-07-21T15:47:27.876Z,24.8
2018-07-21T15:52:28.931Z,24.4
2018-07-21T15:57:28.496Z,24.4
2018-07-21T16:02:27.778Z,24.2
2018-07-21T16:07:27.500Z,24.1
2018-07-21T16:12:28.745Z,24.1
2018-07-21T16:17:28.154Z,24.2
2018-07-21T16:22:27.926Z,24.1
2018-07-21T16:27:28.638Z,24.0
2018-07-21T16:32:28.139Z,24.0
2018-07-21T16:37:27.228Z,23.5
2018-07-21T16:42:27.911Z,23.5
2018-07-21T16:47:28.056Z,23.2
2018-07-21T16:52:27.560Z,23.1
2018-07-21T16:57:28.266Z,23.1
2018-07-21T17:02:28.148Z,22.7
2018-07-21T17:07:27.453Z,22.7
2018-07-21T17:12:27.436Z,22.7
2018-07-21T17:17:28.417Z,22.7
2018-07-21T17:22:29.278Z,22.6
2018-07-21T17:27:39.047Z,22.6
2018-07-21T17:32:31.495Z,22.5
2018-07-21T17:37:27.778Z,22.4
2018-07-21T17:42:28.438Z,22.4
2018-07-21T17:47:27.400Z,22.5
2018-07-21T17:52:27.293Z,22.5
2018-07-21T17:57:27.616Z,22.5
2018-07-21T18:02:28.424Z,22.6
2018-07-21T18:07:28.740Z,22.5
2018-07-21T18:12:27.888Z,22.4
2018-07-21T18:17:28.332Z,22.2
2018-07-21T18:22:27.816Z,22.2
2018-07-21T18:27:28.440Z,22.2
2018-07-21T18:32:27.744Z,22.2
2018-07-21T18:37:29.048Z,22.2
2018-07-21T18:42:29.272Z,22.0
2018-07-21T18:47:28.248Z,21.9
2018-07-21T18:52:28.312Z,21.8
2018-07-21T18:57:27.862Z,21.7
2018-07-21T19:02:28.327Z,21.6
2018-07-21T19:07:27.865Z,21.6
2018-07-21T19:12:28.674Z,21.6
2018-07-21T19:17:29.485Z,21.5
2018-07-21T19:22:27.992Z,21.6
2018-07-21T19:27:28.435Z,21.5
2018-07-21T19:32:28.295Z,21.4
2018-07-21T19:37:27.922Z,21.4
2018-07-21T19:42:27.723Z,21.3
2018-07-21T19:47:27.992Z,21.3
2018-07-21T19:52:27.455Z,21.2
2018-07-21T19:57:27.691Z,21.1
2018-07-21T20:02:28.008Z,21.1
2018-07-21T20:07:27.794Z,21.1
2018-07-21T20:12:27.543Z,20.8
2018-07-21T20:17:27.910Z,20.5
2018-07-21T20:22:27.991Z,20.4
2018-07-21T20:27:27.435Z,20.3
2018-07-21T20:32:28.000Z,20.3
2018-07-21T20:37:27.825Z,20.2
2018-07-21T20:42:27.560Z,20.2
2018-07-21T20:47:28.086Z,20.3
2018-07-21T20:52:26.950Z,20.2
2018-07-21T20:57:27.790Z,20.2
2018-07-21T21:02:27.544Z,20.0
2018-07-21T21:07:28.179Z,20.0
2018-07-21T21:12:27.985Z,20.0
2018-07-21T21:17:28.421Z,20.0
2018-07-21T21:22:27.272Z,20.0
2018-07-21T21:27:26.907Z,19.9
2018-07-21T21:32:27.598Z,20.1
2018-07-21T21:37:27.380Z,20.2
2018-07-21T21:42:27.062Z,20.2
2018-07-21T21:47:27.612Z,20.2
2018-07-21T21:52:27.349Z,20.2
2018-07-21T21:57:27.538Z,20.2
2018-07-21T22:02:28.088Z,20.1
2018-07-21T22:07:27.810Z,20.1
2018-07-21T22:12:27.825Z,20.0
2018-07-21T22:23:05.524Z,19.8
2018-07-21T22:28:03.731Z,19.7
2018-07-21T22:33:03.703Z,19.7
2018-07-21T22:38:03.267Z,19.7
2018-07-21T22:43:03.638Z,19.7
2018-07-21T22:48:04.204Z,19.7
2018-07-21T22:53:03.288Z,19.7
2018-07-21T22:58:03.456Z,19.6
2018-07-21T23:03:03.381Z,19.5
2018-07-21T23:08:04.039Z,19.4
2018-07-21T23:12:27.038Z,19.4
2018-07-21T23:17:28.143Z,19.4
2018-07-21T23:22:27.057Z,19.4
2018-07-21T23:27:27.723Z,19.4
2018-07-21T23:32:27.917Z,19.4
2018-07-21T23:37:27.661Z,19.4
2018-07-21T23:42:27.692Z,19.5
2018-07-21T23:47:27.106Z,19.5
2018-07-21T23:52:27.517Z,19.4
2018-07-21T23:57:27.748Z,19.4
